sensor_id;sensor_type;location;lat;lon;timestamp;P1;durP1;ratioP1;P2;durP2;ratioP2
32533;SDS011;18973;48.580;8.912;2023-10-19T00:01:21;14.48;;;8.88;;
32533;SDS011;18973;48.580;8.912;2023-10-19T00:03:51;12.35;;;9.05;;
32533;SDS011;18973;48.580;8.912;2023-10-19T00:06:21;14.68;;;9.32;;
32533;SDS011;18973;48.580;8.912;2023-10-19T00:08:48;12.05;;;9.25;;
32533;SDS011;18973;48.580;8.912;2023-10-19T00:11:17;14.00;;;9.80;;
32533;SDS011;18973;48.580;8.912;2023-10-19T00:13:51;13.32;;;10.05;;
32533;SDS011;18973;48.580;8.912;2023-10-19T00:16:19;14.63;;;9.80;;
32533;SDS011;18973;48.580;8.912;2023-10-19T00:18:51;16.75;;;10.63;;
32533;SDS011;18973;48.580;8.912;2023-10-19T00:21:17;16.23;;;10.80;;
32533;SDS011;18973;48.580;8.912;2023-10-19T00:23:50;15.70;;;10.38;;
32533;SDS011;18973;48.580;8.912;2023-10-19T00:26:21;14.20;;;10.43;;
32533;SDS011;18973;48.580;8.912;2023-10-19T00:28:50;14.20;;;10.77;;
32533;SDS011;18973;48.580;8.912;2023-10-19T00:31:20;16.30;;;9.68;;
32533;SDS011;18973;48.580;8.912;2023-10-19T00:33:47;13.80;;;9.68;;
32533;SDS011;18973;48.580;8.912;2023-10-19T00:36:16;12.15;;;8.73;;
32533;SDS011;18973;48.580;8.912;2023-10-19T00:38:45;14.38;;;9.80;;
32533;SDS011;18973;48.580;8.912;2023-10-19T00:41:14;17.45;;;10.23;;
32533;SDS011;18973;48.580;8.912;2023-10-19T00:43:59;13.88;;;9.05;;
32533;SDS011;18973;48.580;8.912;2023-10-19T00:46:36;13.65;;;8.75;;
32533;SDS011;18973;48.580;8.912;2023-10-19T00:49:09;13.52;;;9.07;;
32533;SDS011;18973;48.580;8.912;2023-10-19T00:54:17;13.40;;;8.60;;
32533;SDS011;18973;48.580;8.912;2023-10-19T00:57:15;11.05;;;7.65;;
32533;SDS011;18973;48.580;8.912;2023-10-19T00:59:45;13.65;;;8.40;;
32533;SDS011;18973;48.580;8.912;2023-10-19T01:02:17;12.30;;;8.57;;
32533;SDS011;18973;48.580;8.912;2023-10-19T01:04:47;13.57;;;8.55;;
32533;SDS011;18973;48.580;8.912;2023-10-19T01:07:30;11.48;;;7.68;;
32533;SDS011;18973;48.580;8.912;2023-10-19T01:09:59;12.57;;;7.50;;
32533;SDS011;18973;48.580;8.912;2023-10-19T01:12:28;13.77;;;8.93;;
32533;SDS011;18973;48.580;8.912;2023-10-19T01:15:07;13.77;;;8.20;;
32533;SDS011;18973;48.580;8.912;2023-10-19T01:17:33;11.40;;;8.00;;
32533;SDS011;18973;48.580;8.912;2023-10-19T01:20:09;11.30;;;7.63;;
32533;SDS011;18973;48.580;8.912;2023-10-19T01:22:59;10.80;;;8.13;;
32533;SDS011;18973;48.580;8.912;2023-10-19T01:28:19;12.48;;;8.13;;
32533;SDS011;18973;48.580;8.912;2023-10-19T01:30:47;11.57;;;7.68;;
32533;SDS011;18973;48.580;8.912;2023-10-19T01:33:16;11.15;;;7.93;;
32533;SDS011;18973;48.580;8.912;2023-10-19T01:35:46;13.38;;;8.05;;
32533;SDS011;18973;48.580;8.912;2023-10-19T01:38:31;10.50;;;7.57;;
32533;SDS011;18973;48.580;8.912;2023-10-19T01:40:58;12.90;;;8.25;;
32533;SDS011;18973;48.580;8.912;2023-10-19T01:43:25;14.35;;;9.05;;
32533;SDS011;18973;48.580;8.912;2023-10-19T01:45:55;14.70;;;8.93;;
32533;SDS011;18973;48.580;8.912;2023-10-19T01:48:21;12.40;;;9.18;;
32533;SDS011;18973;48.580;8.912;2023-10-19T01:50:58;15.82;;;9.55;;
32533;SDS011;18973;48.580;8.912;2023-10-19T01:53:25;12.13;;;8.27;;
32533;SDS011;18973;48.580;8.912;2023-10-19T01:55:51;13.23;;;7.80;;
32533;SDS011;18973;48.580;8.912;2023-10-19T01:58:26;16.13;;;8.55;;
32533;SDS011;18973;48.580;8.912;2023-10-19T02:00:55;13.10;;;8.57;;
32533;SDS011;18973;48.580;8.912;2023-10-19T02:03:25;12.02;;;8.20;;
32533;SDS011;18973;48.580;8.912;2023-10-19T02:05:59;12.77;;;7.90;;
32533;SDS011;18973;48.580;8.912;2023-10-19T02:08:46;11.18;;;8.20;;
32533;SDS011;18973;48.580;8.912;2023-10-19T02:11:23;12.90;;;7.68;;
32533;SDS011;18973;48.580;8.912;2023-10-19T02:13:51;12.07;;;7.72;;
32533;SDS011;18973;48.580;8.912;2023-10-19T02:16:19;15.18;;;8.10;;
32533;SDS011;18973;48.580;8.912;2023-10-19T02:18:47;10.68;;;7.45;;
32533;SDS011;18973;48.580;8.912;2023-10-19T02:21:14;10.80;;;8.00;;
32533;SDS011;18973;48.580;8.912;2023-10-19T02:23:47;13.00;;;7.35;;
32533;SDS011;18973;48.580;8.912;2023-10-19T02:26:15;10.60;;;7.53;;
32533;SDS011;18973;48.580;8.912;2023-10-19T02:28:48;13.20;;;7.63;;
32533;SDS011;18973;48.580;8.912;2023-10-19T02:31:17;12.35;;;6.30;;
32533;SDS011;18973;48.580;8.912;2023-10-19T02:33:45;12.05;;;7.80;;
32533;SDS011;18973;48.580;8.912;2023-10-19T02:36:12;12.38;;;7.43;;
32533;SDS011;18973;48.580;8.912;2023-10-19T02:38:39;9.50;;;6.45;;
32533;SDS011;18973;48.580;8.912;2023-10-19T02:41:06;11.32;;;7.47;;
32533;SDS011;18973;48.580;8.912;2023-10-19T02:43:32;10.93;;;7.38;;
32533;SDS011;18973;48.580;8.912;2023-10-19T02:45:58;10.48;;;7.32;;
32533;SDS011;18973;48.580;8.912;2023-10-19T02:48:24;13.40;;;7.82;;
32533;SDS011;18973;48.580;8.912;2023-10-19T02:50:50;15.23;;;8.18;;
32533;SDS011;18973;48.580;8.912;2023-10-19T02:53:16;13.82;;;7.65;;
32533;SDS011;18973;48.580;8.912;2023-10-19T02:55:44;12.05;;;7.70;;
32533;SDS011;18973;48.580;8.912;2023-10-19T02:58:09;11.32;;;7.40;;
32533;SDS011;18973;48.580;8.912;2023-10-19T03:00:39;10.30;;;7.45;;
32533;SDS011;18973;48.580;8.912;2023-10-19T03:03:05;11.13;;;7.03;;
32533;SDS011;18973;48.580;8.912;2023-10-19T03:05:31;11.67;;;7.50;;
32533;SDS011;18973;48.580;8.912;2023-10-19T03:07:59;13.68;;;7.15;;
32533;SDS011;18973;48.580;8.912;2023-10-19T03:10:31;10.38;;;6.85;;
32533;SDS011;18973;48.580;8.912;2023-10-19T03:13:07;11.68;;;8.10;;
32533;SDS011;18973;48.580;8.912;2023-10-19T03:15:33;12.27;;;7.30;;
32533;SDS011;18973;48.580;8.912;2023-10-19T03:18:00;13.05;;;7.55;;
32533;SDS011;18973;48.580;8.912;2023-10-19T03:20:29;12.65;;;7.13;;
32533;SDS011;18973;48.580;8.912;2023-10-19T03:22:58;10.48;;;6.43;;
32533;SDS011;18973;48.580;8.912;2023-10-19T03:25:27;12.32;;;7.68;;
32533;SDS011;18973;48.580;8.912;2023-10-19T03:28:11;9.07;;;6.88;;
32533;SDS011;18973;48.580;8.912;2023-10-19T03:30:37;13.30;;;7.28;;
32533;SDS011;18973;48.580;8.912;2023-10-19T03:33:06;9.25;;;6.53;;
32533;SDS011;18973;48.580;8.912;2023-10-19T03:35:36;9.00;;;7.05;;
32533;SDS011;18973;48.580;8.912;2023-10-19T03:38:03;9.63;;;6.38;;
32533;SDS011;18973;48.580;8.912;2023-10-19T03:40:42;11.25;;;6.53;;
32533;SDS011;18973;48.580;8.912;2023-10-19T03:43:11;9.60;;;7.20;;
32533;SDS011;18973;48.580;8.912;2023-10-19T03:48:18;9.68;;;6.25;;
32533;SDS011;18973;48.580;8.912;2023-10-19T03:50:59;10.23;;;7.13;;
32533;SDS011;18973;48.580;8.912;2023-10-19T03:53:27;10.18;;;6.65;;
32533;SDS011;18973;48.580;8.912;2023-10-19T03:55:53;9.20;;;6.50;;
32533;SDS011;18973;48.580;8.912;2023-10-19T03:58:20;14.68;;;6.53;;
32533;SDS011;18973;48.580;8.912;2023-10-19T04:00:48;14.85;;;6.55;;
32533;SDS011;18973;48.580;8.912;2023-10-19T04:03:14;8.07;;;6.50;;
32533;SDS011;18973;48.580;8.912;2023-10-19T04:05:42;14.25;;;6.32;;
32533;SDS011;18973;48.580;8.912;2023-10-19T04:08:12;8.98;;;6.20;;
32533;SDS011;18973;48.580;8.912;2023-10-19T04:10:40;13.65;;;6.53;;
32533;SDS011;18973;48.580;8.912;2023-10-19T04:13:31;8.02;;;5.53;;
32533;SDS011;18973;48.580;8.912;2023-10-19T04:15:57;10.27;;;6.32;;
32533;SDS011;18973;48.580;8.912;2023-10-19T04:18:23;9.82;;;6.38;;
32533;SDS011;18973;48.580;8.912;2023-10-19T04:20:50;6.72;;;5.22;;
32533;SDS011;18973;48.580;8.912;2023-10-19T04:23:20;9.52;;;6.15;;
32533;SDS011;18973;48.580;8.912;2023-10-19T04:25:47;11.30;;;6.22;;
32533;SDS011;18973;48.580;8.912;2023-10-19T04:28:13;13.63;;;7.10;;
32533;SDS011;18973;48.580;8.912;2023-10-19T04:30:39;13.85;;;7.78;;
32533;SDS011;18973;48.580;8.912;2023-10-19T04:33:05;10.05;;;7.03;;
32533;SDS011;18973;48.580;8.912;2023-10-19T04:35:35;14.75;;;8.00;;
32533;SDS011;18973;48.580;8.912;2023-10-19T04:38:03;15.25;;;7.30;;
32533;SDS011;18973;48.580;8.912;2023-10-19T04:40:33;16.20;;;9.05;;
32533;SDS011;18973;48.580;8.912;2023-10-19T04:43:00;18.58;;;10.82;;
32533;SDS011;18973;48.580;8.912;2023-10-19T04:45:29;17.30;;;9.73;;
32533;SDS011;18973;48.580;8.912;2023-10-19T04:47:55;16.90;;;9.10;;
32533;SDS011;18973;48.580;8.912;2023-10-19T04:50:21;12.95;;;8.40;;
32533;SDS011;18973;48.580;8.912;2023-10-19T04:52:46;15.40;;;9.23;;
32533;SDS011;18973;48.580;8.912;2023-10-19T04:55:15;13.80;;;9.13;;
32533;SDS011;18973;48.580;8.912;2023-10-19T04:57:40;17.50;;;7.88;;
32533;SDS011;18973;48.580;8.912;2023-10-19T05:00:06;11.60;;;7.65;;
32533;SDS011;18973;48.580;8.912;2023-10-19T05:02:38;18.52;;;9.13;;
32533;SDS011;18973;48.580;8.912;2023-10-19T05:05:04;11.23;;;7.43;;
32533;SDS011;18973;48.580;8.912;2023-10-19T05:07:29;14.48;;;8.27;;
32533;SDS011;18973;48.580;8.912;2023-10-19T05:09:55;16.00;;;9.07;;
32533;SDS011;18973;48.580;8.912;2023-10-19T05:12:21;11.68;;;6.93;;
32533;SDS011;18973;48.580;8.912;2023-10-19T05:14:46;11.63;;;7.28;;
32533;SDS011;18973;48.580;8.912;2023-10-19T05:17:12;10.52;;;7.40;;
32533;SDS011;18973;48.580;8.912;2023-10-19T05:19:39;14.27;;;7.32;;
32533;SDS011;18973;48.580;8.912;2023-10-19T05:22:06;10.65;;;6.65;;
32533;SDS011;18973;48.580;8.912;2023-10-19T05:24:33;12.73;;;8.05;;
32533;SDS011;18973;48.580;8.912;2023-10-19T05:26:59;13.70;;;7.60;;
32533;SDS011;18973;48.580;8.912;2023-10-19T05:29:25;13.73;;;8.07;;
32533;SDS011;18973;48.580;8.912;2023-10-19T05:31:51;13.57;;;8.18;;
32533;SDS011;18973;48.580;8.912;2023-10-19T05:34:23;10.15;;;7.25;;
32533;SDS011;18973;48.580;8.912;2023-10-19T05:36:51;10.93;;;6.72;;
32533;SDS011;18973;48.580;8.912;2023-10-19T05:39:19;9.82;;;6.60;;
32533;SDS011;18973;48.580;8.912;2023-10-19T05:41:52;10.32;;;6.55;;
32533;SDS011;18973;48.580;8.912;2023-10-19T05:44:21;10.02;;;6.93;;
32533;SDS011;18973;48.580;8.912;2023-10-19T05:46:49;10.30;;;6.53;;
32533;SDS011;18973;48.580;8.912;2023-10-19T05:49:16;10.85;;;7.03;;
32533;SDS011;18973;48.580;8.912;2023-10-19T05:51:42;11.73;;;7.35;;
32533;SDS011;18973;48.580;8.912;2023-10-19T05:54:09;11.65;;;7.22;;
32533;SDS011;18973;48.580;8.912;2023-10-19T05:56:35;10.95;;;7.03;;
32533;SDS011;18973;48.580;8.912;2023-10-19T05:59:01;11.70;;;7.18;;
32533;SDS011;18973;48.580;8.912;2023-10-19T06:01:27;11.43;;;7.90;;
32533;SDS011;18973;48.580;8.912;2023-10-19T06:03:53;11.18;;;7.50;;
32533;SDS011;18973;48.580;8.912;2023-10-19T06:06:19;9.52;;;7.47;;
32533;SDS011;18973;48.580;8.912;2023-10-19T06:08:45;14.85;;;9.00;;
32533;SDS011;18973;48.580;8.912;2023-10-19T06:11:11;17.08;;;9.57;;
32533;SDS011;18973;48.580;8.912;2023-10-19T06:13:37;13.25;;;8.50;;
32533;SDS011;18973;48.580;8.912;2023-10-19T06:16:03;10.05;;;7.82;;
32533;SDS011;18973;48.580;8.912;2023-10-19T06:18:29;18.73;;;8.18;;
32533;SDS011;18973;48.580;8.912;2023-10-19T06:20:55;12.10;;;7.45;;
32533;SDS011;18973;48.580;8.912;2023-10-19T06:23:21;10.57;;;6.55;;
32533;SDS011;18973;48.580;8.912;2023-10-19T06:25:46;10.98;;;6.97;;
32533;SDS011;18973;48.580;8.912;2023-10-19T06:28:13;17.58;;;10.13;;
32533;SDS011;18973;48.580;8.912;2023-10-19T06:30:39;20.58;;;13.15;;
32533;SDS011;18973;48.580;8.912;2023-10-19T06:33:05;10.40;;;7.97;;
32533;SDS011;18973;48.580;8.912;2023-10-19T06:35:31;16.83;;;6.53;;
32533;SDS011;18973;48.580;8.912;2023-10-19T06:37:58;13.35;;;7.30;;
32533;SDS011;18973;48.580;8.912;2023-10-19T06:40:25;8.50;;;6.60;;
32533;SDS011;18973;48.580;8.912;2023-10-19T06:42:57;11.65;;;7.00;;
32533;SDS011;18973;48.580;8.912;2023-10-19T06:45:24;10.25;;;6.25;;
32533;SDS011;18973;48.580;8.912;2023-10-19T06:47:51;10.75;;;6.22;;
32533;SDS011;18973;48.580;8.912;2023-10-19T06:50:20;11.63;;;7.03;;
32533;SDS011;18973;48.580;8.912;2023-10-19T06:52:48;8.55;;;6.53;;
32533;SDS011;18973;48.580;8.912;2023-10-19T06:55:15;11.25;;;7.30;;
32533;SDS011;18973;48.580;8.912;2023-10-19T06:57:54;8.82;;;6.10;;
32533;SDS011;18973;48.580;8.912;2023-10-19T07:00:24;13.82;;;7.28;;
32533;SDS011;18973;48.580;8.912;2023-10-19T07:02:54;11.00;;;7.18;;
32533;SDS011;18973;48.580;8.912;2023-10-19T07:05:21;9.85;;;6.88;;
32533;SDS011;18973;48.580;8.912;2023-10-19T07:07:51;9.80;;;6.03;;
32533;SDS011;18973;48.580;8.912;2023-10-19T07:10:19;10.63;;;6.53;;
32533;SDS011;18973;48.580;8.912;2023-10-19T07:12:47;11.80;;;7.45;;
32533;SDS011;18973;48.580;8.912;2023-10-19T07:15:14;14.20;;;7.38;;
32533;SDS011;18973;48.580;8.912;2023-10-19T07:17:43;11.75;;;6.50;;
32533;SDS011;18973;48.580;8.912;2023-10-19T07:20:09;8.38;;;6.45;;
32533;SDS011;18973;48.580;8.912;2023-10-19T07:22:50;8.80;;;6.40;;
32533;SDS011;18973;48.580;8.912;2023-10-19T07:25:22;11.95;;;6.68;;
32533;SDS011;18973;48.580;8.912;2023-10-19T07:27:51;11.18;;;6.63;;
32533;SDS011;18973;48.580;8.912;2023-10-19T07:30:17;14.55;;;6.75;;
32533;SDS011;18973;48.580;8.912;2023-10-19T07:32:47;10.07;;;6.50;;
32533;SDS011;18973;48.580;8.912;2023-10-19T07:35:20;12.93;;;6.90;;
32533;SDS011;18973;48.580;8.912;2023-10-19T07:37:47;11.80;;;6.63;;
32533;SDS011;18973;48.580;8.912;2023-10-19T07:40:15;11.50;;;6.90;;
32533;SDS011;18973;48.580;8.912;2023-10-19T07:42:42;10.05;;;6.53;;
32533;SDS011;18973;48.580;8.912;2023-10-19T07:45:08;13.60;;;7.15;;
32533;SDS011;18973;48.580;8.912;2023-10-19T07:47:39;10.65;;;6.85;;
32533;SDS011;18973;48.580;8.912;2023-10-19T07:50:06;9.43;;;6.28;;
32533;SDS011;18973;48.580;8.912;2023-10-19T07:52:43;10.43;;;6.88;;
32533;SDS011;18973;48.580;8.912;2023-10-19T07:55:09;11.80;;;7.28;;
32533;SDS011;18973;48.580;8.912;2023-10-19T07:57:36;10.27;;;6.65;;
32533;SDS011;18973;48.580;8.912;2023-10-19T08:00:01;13.23;;;6.97;;
32533;SDS011;18973;48.580;8.912;2023-10-19T08:02:29;9.27;;;6.55;;
32533;SDS011;18973;48.580;8.912;2023-10-19T08:04:55;9.65;;;6.50;;
32533;SDS011;18973;48.580;8.912;2023-10-19T08:07:21;8.55;;;6.15;;
32533;SDS011;18973;48.580;8.912;2023-10-19T08:09:47;11.43;;;6.55;;
32533;SDS011;18973;48.580;8.912;2023-10-19T08:12:13;10.43;;;6.05;;
32533;SDS011;18973;48.580;8.912;2023-10-19T08:14:39;8.82;;;5.68;;
32533;SDS011;18973;48.580;8.912;2023-10-19T08:17:05;12.02;;;6.25;;
32533;SDS011;18973;48.580;8.912;2023-10-19T08:19:33;8.07;;;5.70;;
32533;SDS011;18973;48.580;8.912;2023-10-19T08:21:59;6.40;;;5.20;;
32533;SDS011;18973;48.580;8.912;2023-10-19T08:24:25;11.52;;;6.03;;
32533;SDS011;18973;48.580;8.912;2023-10-19T08:26:54;10.18;;;5.75;;
32533;SDS011;18973;48.580;8.912;2023-10-19T08:29:20;13.73;;;6.05;;
32533;SDS011;18973;48.580;8.912;2023-10-19T08:31:46;11.73;;;6.55;;
32533;SDS011;18973;48.580;8.912;2023-10-19T08:34:12;14.80;;;5.97;;
32533;SDS011;18973;48.580;8.912;2023-10-19T08:36:38;8.60;;;6.20;;
32533;SDS011;18973;48.580;8.912;2023-10-19T08:39:04;12.73;;;6.47;;
32533;SDS011;18973;48.580;8.912;2023-10-19T08:41:37;8.60;;;5.55;;
32533;SDS011;18973;48.580;8.912;2023-10-19T08:44:05;10.23;;;6.13;;
32533;SDS011;18973;48.580;8.912;2023-10-19T08:46:41;10.30;;;5.43;;
32533;SDS011;18973;48.580;8.912;2023-10-19T08:49:14;12.13;;;4.95;;
32533;SDS011;18973;48.580;8.912;2023-10-19T08:51:44;8.13;;;4.88;;
32533;SDS011;18973;48.580;8.912;2023-10-19T08:54:12;10.90;;;5.78;;
32533;SDS011;18973;48.580;8.912;2023-10-19T08:56:38;13.90;;;7.13;;
32533;SDS011;18973;48.580;8.912;2023-10-19T08:59:06;13.05;;;6.93;;
32533;SDS011;18973;48.580;8.912;2023-10-19T09:01:40;12.93;;;5.83;;
32533;SDS011;18973;48.580;8.912;2023-10-19T09:04:09;6.53;;;4.82;;
32533;SDS011;18973;48.580;8.912;2023-10-19T09:06:44;13.00;;;6.15;;
32533;SDS011;18973;48.580;8.912;2023-10-19T09:09:13;11.43;;;6.10;;
32533;SDS011;18973;48.580;8.912;2023-10-19T09:11:44;9.52;;;5.72;;
32533;SDS011;18973;48.580;8.912;2023-10-19T09:14:14;8.77;;;5.45;;
32533;SDS011;18973;48.580;8.912;2023-10-19T09:16:55;10.65;;;5.88;;
32533;SDS011;18973;48.580;8.912;2023-10-19T09:19:35;10.93;;;5.63;;
32533;SDS011;18973;48.580;8.912;2023-10-19T09:22:01;7.18;;;4.78;;
32533;SDS011;18973;48.580;8.912;2023-10-19T09:24:33;9.35;;;5.25;;
32533;SDS011;18973;48.580;8.912;2023-10-19T09:27:02;11.13;;;5.38;;
32533;SDS011;18973;48.580;8.912;2023-10-19T09:29:29;9.70;;;4.10;;
32533;SDS011;18973;48.580;8.912;2023-10-19T09:31:58;9.05;;;4.75;;
32533;SDS011;18973;48.580;8.912;2023-10-19T09:34:29;10.27;;;5.25;;
32533;SDS011;18973;48.580;8.912;2023-10-19T09:36:58;7.40;;;4.63;;
32533;SDS011;18973;48.580;8.912;2023-10-19T09:39:26;8.18;;;5.30;;
32533;SDS011;18973;48.580;8.912;2023-10-19T09:41:59;5.93;;;4.57;;
32533;SDS011;18973;48.580;8.912;2023-10-19T09:44:34;7.30;;;4.57;;
32533;SDS011;18973;48.580;8.912;2023-10-19T09:47:06;7.70;;;5.15;;
32533;SDS011;18973;48.580;8.912;2023-10-19T09:49:41;8.90;;;5.43;;
32533;SDS011;18973;48.580;8.912;2023-10-19T09:52:10;7.20;;;5.07;;
32533;SDS011;18973;48.580;8.912;2023-10-19T09:54:48;7.85;;;5.05;;
32533;SDS011;18973;48.580;8.912;2023-10-19T09:57:29;9.18;;;5.43;;
32533;SDS011;18973;48.580;8.912;2023-10-19T10:00:03;11.02;;;5.20;;
32533;SDS011;18973;48.580;8.912;2023-10-19T10:02:39;9.02;;;5.10;;
32533;SDS011;18973;48.580;8.912;2023-10-19T10:10:49;8.10;;;4.50;;
32533;SDS011;18973;48.580;8.912;2023-10-19T10:15:52;9.95;;;4.93;;
32533;SDS011;18973;48.580;8.912;2023-10-19T10:18:33;7.68;;;4.88;;
32533;SDS011;18973;48.580;8.912;2023-10-19T10:21:22;8.98;;;4.80;;
32533;SDS011;18973;48.580;8.912;2023-10-19T10:23:56;6.55;;;4.18;;
32533;SDS011;18973;48.580;8.912;2023-10-19T10:26:24;7.55;;;4.75;;
32533;SDS011;18973;48.580;8.912;2023-10-19T10:29:08;8.25;;;4.93;;
32533;SDS011;18973;48.580;8.912;2023-10-19T10:31:47;9.68;;;4.70;;
32533;SDS011;18973;48.580;8.912;2023-10-19T10:37:02;8.18;;;4.93;;
32533;SDS011;18973;48.580;8.912;2023-10-19T10:39:36;8.80;;;5.45;;
32533;SDS011;18973;48.580;8.912;2023-10-19T10:42:07;9.88;;;5.75;;
32533;SDS011;18973;48.580;8.912;2023-10-19T10:44:37;7.93;;;6.13;;
32533;SDS011;18973;48.580;8.912;2023-10-19T10:47:05;9.00;;;6.60;;
32533;SDS011;18973;48.580;8.912;2023-10-19T10:49:35;10.40;;;5.55;;
32533;SDS011;18973;48.580;8.912;2023-10-19T10:52:13;8.75;;;5.53;;
32533;SDS011;18973;48.580;8.912;2023-10-19T10:54:48;12.10;;;6.28;;
32533;SDS011;18973;48.580;8.912;2023-10-19T10:57:13;9.07;;;5.55;;
32533;SDS011;18973;48.580;8.912;2023-10-19T10:59:39;10.38;;;6.07;;
32533;SDS011;18973;48.580;8.912;2023-10-19T11:02:16;8.82;;;5.50;;
32533;SDS011;18973;48.580;8.912;2023-10-19T11:04:47;8.80;;;5.90;;
32533;SDS011;18973;48.580;8.912;2023-10-19T11:07:19;11.13;;;5.65;;
32533;SDS011;18973;48.580;8.912;2023-10-19T11:09:47;9.80;;;5.50;;
32533;SDS011;18973;48.580;8.912;2023-10-19T11:12:14;9.20;;;5.57;;
32533;SDS011;18973;48.580;8.912;2023-10-19T11:17:18;6.22;;;4.60;;
32533;SDS011;18973;48.580;8.912;2023-10-19T11:19:48;7.25;;;4.95;;
32533;SDS011;18973;48.580;8.912;2023-10-19T11:22:14;10.18;;;4.63;;
32533;SDS011;18973;48.580;8.912;2023-10-19T11:24:40;6.25;;;4.53;;
32533;SDS011;18973;48.580;8.912;2023-10-19T11:27:06;5.70;;;4.45;;
32533;SDS011;18973;48.580;8.912;2023-10-19T11:29:37;8.15;;;3.85;;
32533;SDS011;18973;48.580;8.912;2023-10-19T11:32:03;19.42;;;11.02;;
32533;SDS011;18973;48.580;8.912;2023-10-19T11:34:29;10.93;;;7.97;;
32533;SDS011;18973;48.580;8.912;2023-10-19T11:36:58;7.53;;;3.38;;
32533;SDS011;18973;48.580;8.912;2023-10-19T11:39:28;6.22;;;3.00;;
32533;SDS011;18973;48.580;8.912;2023-10-19T11:41:54;6.43;;;3.90;;
32533;SDS011;18973;48.580;8.912;2023-10-19T11:44:20;4.28;;;3.00;;
32533;SDS011;18973;48.580;8.912;2023-10-19T11:46:47;7.93;;;2.60;;
32533;SDS011;18973;48.580;8.912;2023-10-19T11:49:13;6.97;;;2.53;;
32533;SDS011;18973;48.580;8.912;2023-10-19T11:51:39;3.85;;;2.72;;
32533;SDS011;18973;48.580;8.912;2023-10-19T11:54:05;5.90;;;4.30;;
32533;SDS011;18973;48.580;8.912;2023-10-19T11:56:33;8.35;;;5.07;;
32533;SDS011;18973;48.580;8.912;2023-10-19T11:58:59;6.70;;;3.83;;
32533;SDS011;18973;48.580;8.912;2023-10-19T12:01:26;2.67;;;2.15;;
32533;SDS011;18973;48.580;8.912;2023-10-19T12:03:54;3.75;;;2.28;;
32533;SDS011;18973;48.580;8.912;2023-10-19T12:06:20;2.55;;;2.10;;
32533;SDS011;18973;48.580;8.912;2023-10-19T12:08:48;2.55;;;1.75;;
32533;SDS011;18973;48.580;8.912;2023-10-19T12:11:14;3.58;;;1.90;;
32533;SDS011;18973;48.580;8.912;2023-10-19T12:13:41;3.72;;;2.28;;
32533;SDS011;18973;48.580;8.912;2023-10-19T12:16:10;4.18;;;1.98;;
32533;SDS011;18973;48.580;8.912;2023-10-19T12:18:49;2.72;;;2.00;;
32533;SDS011;18973;48.580;8.912;2023-10-19T12:21:14;2.45;;;1.95;;
32533;SDS011;18973;48.580;8.912;2023-10-19T12:23:43;3.75;;;2.03;;
32533;SDS011;18973;48.580;8.912;2023-10-19T12:26:10;35.35;;;20.30;;
32533;SDS011;18973;48.580;8.912;2023-10-19T12:28:40;34.15;;;21.02;;
32533;SDS011;18973;48.580;8.912;2023-10-19T12:31:07;7.13;;;4.85;;
32533;SDS011;18973;48.580;8.912;2023-10-19T12:33:38;5.72;;;3.63;;
32533;SDS011;18973;48.580;8.912;2023-10-19T12:36:06;10.85;;;6.70;;
32533;SDS011;18973;48.580;8.912;2023-10-19T12:38:51;8.67;;;4.87;;
32533;SDS011;18973;48.580;8.912;2023-10-19T12:41:18;6.00;;;4.40;;
32533;SDS011;18973;48.580;8.912;2023-10-19T12:43:44;6.10;;;3.65;;
32533;SDS011;18973;48.580;8.912;2023-10-19T12:46:11;7.80;;;2.97;;
32533;SDS011;18973;48.580;8.912;2023-10-19T12:48:39;5.13;;;4.63;;
32533;SDS011;18973;48.580;8.912;2023-10-19T12:51:05;6.20;;;3.63;;
32533;SDS011;18973;48.580;8.912;2023-10-19T12:53:37;8.63;;;6.13;;
32533;SDS011;18973;48.580;8.912;2023-10-19T12:56:06;5.93;;;4.53;;
32533;SDS011;18973;48.580;8.912;2023-10-19T12:58:33;8.70;;;5.07;;
32533;SDS011;18973;48.580;8.912;2023-10-19T13:00:58;12.05;;;5.45;;
32533;SDS011;18973;48.580;8.912;2023-10-19T13:03:24;10.35;;;5.28;;
32533;SDS011;18973;48.580;8.912;2023-10-19T13:05:57;5.38;;;4.45;;
32533;SDS011;18973;48.580;8.912;2023-10-19T13:08:23;9.85;;;4.95;;
32533;SDS011;18973;48.580;8.912;2023-10-19T13:10:52;8.73;;;5.65;;
32533;SDS011;18973;48.580;8.912;2023-10-19T13:13:19;13.55;;;4.07;;
32533;SDS011;18973;48.580;8.912;2023-10-19T13:15:47;8.20;;;5.10;;
32533;SDS011;18973;48.580;8.912;2023-10-19T13:18:13;9.57;;;5.70;;
32533;SDS011;18973;48.580;8.912;2023-10-19T13:20:45;8.50;;;5.13;;
32533;SDS011;18973;48.580;8.912;2023-10-19T13:23:13;8.60;;;5.55;;
32533;SDS011;18973;48.580;8.912;2023-10-19T13:25:46;7.25;;;4.72;;
32533;SDS011;18973;48.580;8.912;2023-10-19T13:28:18;8.45;;;5.25;;
32533;SDS011;18973;48.580;8.912;2023-10-19T13:30:51;5.78;;;4.43;;
32533;SDS011;18973;48.580;8.912;2023-10-19T13:33:21;6.95;;;4.65;;
32533;SDS011;18973;48.580;8.912;2023-10-19T13:35:47;8.50;;;7.70;;
32533;SDS011;18973;48.580;8.912;2023-10-19T13:38:13;5.93;;;4.40;;
32533;SDS011;18973;48.580;8.912;2023-10-19T13:40:41;8.65;;;4.60;;
32533;SDS011;18973;48.580;8.912;2023-10-19T13:43:07;9.85;;;4.32;;
32533;SDS011;18973;48.580;8.912;2023-10-19T13:45:36;11.68;;;5.30;;
32533;SDS011;18973;48.580;8.912;2023-10-19T13:48:05;5.53;;;4.40;;
32533;SDS011;18973;48.580;8.912;2023-10-19T13:50:34;8.60;;;5.05;;
32533;SDS011;18973;48.580;8.912;2023-10-19T13:53:00;9.30;;;6.15;;
32533;SDS011;18973;48.580;8.912;2023-10-19T13:55:28;5.57;;;4.30;;
32533;SDS011;18973;48.580;8.912;2023-10-19T13:57:55;4.72;;;4.15;;
32533;SDS011;18973;48.580;8.912;2023-10-19T14:00:21;7.75;;;3.03;;
32533;SDS011;18973;48.580;8.912;2023-10-19T14:03:14;72.65;;;53.25;;
32533;SDS011;18973;48.580;8.912;2023-10-19T14:05:43;130.20;;;76.80;;
32533;SDS011;18973;48.580;8.912;2023-10-19T14:08:13;28.95;;;21.13;;
32533;SDS011;18973;48.580;8.912;2023-10-19T14:10:41;16.73;;;12.52;;
32533;SDS011;18973;48.580;8.912;2023-10-19T14:13:07;8.05;;;6.00;;
32533;SDS011;18973;48.580;8.912;2023-10-19T14:15:33;2.03;;;1.55;;
32533;SDS011;18973;48.580;8.912;2023-10-19T14:17:59;4.00;;;2.65;;
32533;SDS011;18973;48.580;8.912;2023-10-19T14:20:25;2.17;;;1.30;;
32533;SDS011;18973;48.580;8.912;2023-10-19T14:22:54;3.13;;;1.40;;
32533;SDS011;18973;48.580;8.912;2023-10-19T14:25:20;3.95;;;1.80;;
32533;SDS011;18973;48.580;8.912;2023-10-19T14:27:47;2.30;;;1.50;;
32533;SDS011;18973;48.580;8.912;2023-10-19T14:30:15;3.42;;;1.90;;
32533;SDS011;18973;48.580;8.912;2023-10-19T14:32:47;2.92;;;1.98;;
32533;SDS011;18973;48.580;8.912;2023-10-19T14:35:15;3.92;;;2.20;;
32533;SDS011;18973;48.580;8.912;2023-10-19T14:37:42;4.90;;;2.42;;
32533;SDS011;18973;48.580;8.912;2023-10-19T14:40:13;5.63;;;2.53;;
32533;SDS011;18973;48.580;8.912;2023-10-19T14:42:45;4.28;;;2.95;;
32533;SDS011;18973;48.580;8.912;2023-10-19T14:45:15;2.72;;;2.00;;
32533;SDS011;18973;48.580;8.912;2023-10-19T14:47:49;4.30;;;2.15;;
32533;SDS011;18973;48.580;8.912;2023-10-19T14:50:19;3.53;;;2.78;;
32533;SDS011;18973;48.580;8.912;2023-10-19T14:52:46;2.70;;;1.95;;
32533;SDS011;18973;48.580;8.912;2023-10-19T14:55:14;3.67;;;2.20;;
32533;SDS011;18973;48.580;8.912;2023-10-19T14:57:41;3.47;;;2.72;;
32533;SDS011;18973;48.580;8.912;2023-10-19T15:00:09;6.25;;;5.63;;
32533;SDS011;18973;48.580;8.912;2023-10-19T15:02:51;6.15;;;2.90;;
32533;SDS011;18973;48.580;8.912;2023-10-19T15:05:21;4.88;;;3.45;;
32533;SDS011;18973;48.580;8.912;2023-10-19T15:07:50;5.57;;;4.07;;
32533;SDS011;18973;48.580;8.912;2023-10-19T15:12:46;6.18;;;4.60;;
32533;SDS011;18973;48.580;8.912;2023-10-19T15:15:11;7.43;;;5.93;;